sensor_id;sensor_type;location;lat;lon;timestamp;pressure;altitude;pressure_sealevel;temperature;humidity
72721;BME280;60835;50.974;10.322;2024-02-16T00:01:50;97978.84;;;12.14;100.00
72721;BME280;60835;50.974;10.322;2024-02-16T00:04:16;97988.03;;;12.27;100.00
72721;BME280;60835;50.974;10.322;2024-02-16T00:06:43;98002.13;;;12.50;100.00
72721;BME280;60835;50.974;10.322;2024-02-16T00:09:10;98017.75;;;12.45;100.00
72721;BME280;60835;50.974;10.322;2024-02-16T00:11:37;98013.81;;;12.41;100.00
72721;BME280;60835;50.974;10.322;2024-02-16T00:14:04;98016.75;;;12.46;100.00
72721;BME280;60835;50.974;10.322;2024-02-16T00:16:30;98017.75;;;12.45;100.00
72721;BME280;60835;50.974;10.322;2024-02-16T00:18:57;98011.16;;;12.41;100.00
72721;BME280;60835;50.974;10.322;2024-02-16T00:21:24;98025.59;;;12.38;100.00
72721;BME280;60835;50.974;10.322;2024-02-16T00:23:51;98002.31;;;12.26;100.00
72721;BME280;60835;50.974;10.322;2024-02-16T00:26:18;98008.28;;;12.28;100.00
72721;BME280;60835;50.974;10.322;2024-02-16T00:28:49;98010.97;;;12.42;100.00
72721;BME280;60835;50.974;10.322;2024-02-16T00:31:17;98006.03;;;12.39;100.00
72721;BME280;60835;50.974;10.322;2024-02-16T00:33:46;98004.44;;;12.30;100.00
72721;BME280;60835;50.974;10.322;2024-02-16T00:36:13;97992.81;;;12.31;100.00
72721;BME280;60835;50.974;10.322;2024-02-16T00:38:40;98010.38;;;12.32;100.00
72721;BME280;60835;50.974;10.322;2024-02-16T00:41:07;98011.16;;;12.41;100.00
72721;BME280;60835;50.974;10.322;2024-02-16T00:43:33;98003.78;;;12.51;100.00
72721;BME280;60835;50.974;10.322;2024-02-16T00:46:00;97999.81;;;12.55;100.00
72721;BME280;60835;50.974;10.322;2024-02-16T00:48:26;98009.03;;;12.59;100.00
72721;BME280;60835;50.974;10.322;2024-02-16T00:50:53;97999.41;;;12.58;100.00
72721;BME280;60835;50.974;10.322;2024-02-16T00:53:19;98008.16;;;12.66;100.00
72721;BME280;60835;50.974;10.322;2024-02-16T00:55:46;98018.47;;;12.61;100.00
72721;BME280;60835;50.974;10.322;2024-02-16T00:58:13;98000.25;;;12.58;100.00
72721;BME280;60835;50.974;10.322;2024-02-16T01:00:39;98012.00;;;12.64;100.00
72721;BME280;60835;50.974;10.322;2024-02-16T01:03:09;97989.53;;;12.52;100.00
72721;BME280;60835;50.974;10.322;2024-02-16T01:05:37;98007.66;;;12.63;100.00
72721;BME280;60835;50.974;10.322;2024-02-16T01:08:04;98017.50;;;12.62;100.00
72721;BME280;60835;50.974;10.322;2024-02-16T01:10:32;97963.81;;;12.30;100.00
72721;BME280;60835;50.974;10.322;2024-02-16T01:12:58;98000.09;;;12.60;100.00
72721;BME280;60835;50.974;10.322;2024-02-16T01:15:26;98011.84;;;12.65;100.00
72721;BME280;60835;50.974;10.322;2024-02-16T01:17:53;98000.16;;;12.52;100.00
72721;BME280;60835;50.974;10.322;2024-02-16T01:20:20;97995.66;;;12.52;100.00
72721;BME280;60835;50.974;10.322;2024-02-16T01:22:47;98004.72;;;12.58;100.00
72721;BME280;60835;50.974;10.322;2024-02-16T01:25:14;98005.47;;;12.52;100.00
72721;BME280;60835;50.974;10.322;2024-02-16T01:27:40;98003.88;;;12.65;100.00
72721;BME280;60835;50.974;10.322;2024-02-16T01:30:07;97990.00;;;12.55;100.00
72721;BME280;60835;50.974;10.322;2024-02-16T01:32:34;98009.69;;;12.61;100.00
72721;BME280;60835;50.974;10.322;2024-02-16T01:35:01;98003.44;;;12.54;100.00
72721;BME280;60835;50.974;10.322;2024-02-16T01:37:28;97998.97;;;12.54;100.00
72721;BME280;60835;50.974;10.322;2024-02-16T01:39:54;97989.47;;;12.37;100.00
72721;BME280;60835;50.974;10.322;2024-02-16T01:42:21;97997.31;;;12.53;100.00
72721;BME280;60835;50.974;10.322;2024-02-16T01:44:48;97988.22;;;12.48;100.00
72721;BME280;60835;50.974;10.322;2024-02-16T01:47:18;97977.03;;;12.38;100.00
72721;BME280;60835;50.974;10.322;2024-02-16T01:49:45;97992.84;;;12.54;100.00
72721;BME280;60835;50.974;10.322;2024-02-16T01:52:11;97993.00;;;12.52;100.00
72721;BME280;60835;50.974;10.322;2024-02-16T01:54:38;97995.19;;;12.49;100.00
72721;BME280;60835;50.974;10.322;2024-02-16T01:57:05;97980.22;;;12.56;100.00
72721;BME280;60835;50.974;10.322;2024-02-16T01:59:33;97962.59;;;12.40;100.00
72721;BME280;60835;50.974;10.322;2024-02-16T02:01:59;97978.56;;;12.55;100.00
72721;BME280;60835;50.974;10.322;2024-02-16T02:04:27;97996.47;;;12.53;100.00
72721;BME280;60835;50.974;10.322;2024-02-16T02:06:55;97994.50;;;12.55;100.00
72721;BME280;60835;50.974;10.322;2024-02-16T02:09:22;97990.47;;;12.59;100.00
72721;BME280;60835;50.974;10.322;2024-02-16T02:11:49;97974.06;;;12.55;100.00
72721;BME280;60835;50.974;10.322;2024-02-16T02:14:16;97963.50;;;12.47;100.00
72721;BME280;60835;50.974;10.322;2024-02-16T02:16:42;97994.72;;;12.68;100.00
72721;BME280;60835;50.974;10.322;2024-02-16T02:19:20;97995.44;;;12.62;100.00
72721;BME280;60835;50.974;10.322;2024-02-16T02:21:48;97990.75;;;12.64;100.00
72721;BME280;60835;50.974;10.322;2024-02-16T02:24:14;97980.84;;;12.58;100.00
72721;BME280;60835;50.974;10.322;2024-02-16T02:26:41;97990.69;;;12.72;100.00
72721;BME280;60835;50.974;10.322;2024-02-16T02:29:08;97997.78;;;12.57;100.00
72721;BME280;60835;50.974;10.322;2024-02-16T02:31:35;97979.38;;;12.55;100.00
72721;BME280;60835;50.974;10.322;2024-02-16T02:34:01;98002.97;;;12.73;100.00
72721;BME280;60835;50.974;10.322;2024-02-16T02:36:28;97973.25;;;12.55;100.00
72721;BME280;60835;50.974;10.322;2024-02-16T02:38:55;97999.66;;;12.71;100.00
72721;BME280;60835;50.974;10.322;2024-02-16T02:41:22;97987.81;;;12.59;100.00
72721;BME280;60835;50.974;10.322;2024-02-16T02:43:52;97982.53;;;12.73;100.00
72721;BME280;60835;50.974;10.322;2024-02-16T02:46:19;97975.53;;;12.58;100.00
72721;BME280;60835;50.974;10.322;2024-02-16T02:48:46;97978.97;;;12.66;100.00
72721;BME280;60835;50.974;10.322;2024-02-16T02:51:18;97971.06;;;12.58;100.00
72721;BME280;60835;50.974;10.322;2024-02-16T02:53:45;97978.56;;;12.55;100.00
72721;BME280;60835;50.974;10.322;2024-02-16T02:56:12;97975.25;;;12.53;100.00
72721;BME280;60835;50.974;10.322;2024-02-16T02:58:41;97967.63;;;12.50;100.00
72721;BME280;60835;50.974;10.322;2024-02-16T03:01:08;97966.41;;;12.38;100.00
72721;BME280;60835;50.974;10.322;2024-02-16T03:03:35;97963.13;;;12.36;100.00
72721;BME280;60835;50.974;10.322;2024-02-16T03:06:02;97965.13;;;12.34;100.00
72721;BME280;60835;50.974;10.322;2024-02-16T03:08:30;97959.09;;;12.40;100.00
72721;BME280;60835;50.974;10.322;2024-02-16T03:10:57;97957.28;;;12.40;100.00
72721;BME280;60835;50.974;10.322;2024-02-16T03:13:27;97966.06;;;12.41;100.00
72721;BME280;60835;50.974;10.322;2024-02-16T03:15:55;97970.34;;;12.42;100.00
72721;BME280;60835;50.974;10.322;2024-02-16T03:18:22;97967.25;;;12.38;100.00
72721;BME280;60835;50.974;10.322;2024-02-16T03:20:49;97941.66;;;12.23;100.00
72721;BME280;60835;50.974;10.322;2024-02-16T03:23:17;97962.41;;;12.42;100.00
72721;BME280;60835;50.974;10.322;2024-02-16T03:25:44;97969.38;;;12.43;100.00
72721;BME280;60835;50.974;10.322;2024-02-16T03:28:12;97962.41;;;12.42;100.00
72721;BME280;60835;50.974;10.322;2024-02-16T03:30:39;97963.56;;;12.39;100.00
72721;BME280;60835;50.974;10.322;2024-02-16T03:33:06;97961.34;;;12.51;100.00
72721;BME280;60835;50.974;10.322;2024-02-16T03:35:33;97968.59;;;12.34;100.00
72721;BME280;60835;50.974;10.322;2024-02-16T03:38:00;97967.69;;;12.42;100.00
72721;BME280;60835;50.974;10.322;2024-02-16T03:40:27;97973.38;;;12.39;100.00
72721;BME280;60835;50.974;10.322;2024-02-16T03:42:55;97962.78;;;12.39;100.00
72721;BME280;60835;50.974;10.322;2024-02-16T03:45:22;97970.53;;;12.40;100.00
72721;BME280;60835;50.974;10.322;2024-02-16T03:47:50;97973.50;;;12.45;100.00
72721;BME280;60835;50.974;10.322;2024-02-16T03:50:20;97979.97;;;12.43;100.00
72721;BME280;60835;50.974;10.322;2024-02-16T03:52:47;97967.88;;;12.40;100.00
72721;BME280;60835;50.974;10.322;2024-02-16T03:55:13;97967.88;;;12.40;100.00
72721;BME280;60835;50.974;10.322;2024-02-16T03:57:40;97979.50;;;12.39;100.00
72721;BME280;60835;50.974;10.322;2024-02-16T04:00:08;97970.25;;;12.35;100.00
72721;BME280;60835;50.974;10.322;2024-02-16T04:02:35;97971.66;;;12.46;100.00
72721;BME280;60835;50.974;10.322;2024-02-16T04:05:03;97973.50;;;12.45;100.00
72721;BME280;60835;50.974;10.322;2024-02-16T04:07:30;97974.31;;;12.46;100.00
72721;BME280;60835;50.974;10.322;2024-02-16T04:09:57;97961.47;;;12.35;100.00
72721;BME280;60835;50.974;10.322;2024-02-16T04:12:24;97980.72;;;12.29;100.00
72721;BME280;60835;50.974;10.322;2024-02-16T04:14:50;97985.00;;;12.38;100.00
72721;BME280;60835;50.974;10.322;2024-02-16T04:17:17;97979.16;;;12.19;100.00
72721;BME280;60835;50.974;10.322;2024-02-16T04:19:44;97979.16;;;12.19;100.00
72721;BME280;60835;50.974;10.322;2024-02-16T04:22:11;97980.47;;;12.15;100.00
72721;BME280;60835;50.974;10.322;2024-02-16T04:24:37;97984.09;;;12.23;100.00
72721;BME280;60835;50.974;10.322;2024-02-16T04:27:04;97976.66;;;12.18;100.00
72721;BME280;60835;50.974;10.322;2024-02-16T04:29:34;97966.72;;;12.20;100.00
72721;BME280;60835;50.974;10.322;2024-02-16T04:32:01;97971.34;;;12.18;100.00
72721;BME280;60835;50.974;10.322;2024-02-16T04:34:27;97971.53;;;12.16;100.00
72721;BME280;60835;50.974;10.322;2024-02-16T04:36:55;97972.41;;;12.09;100.00
72721;BME280;60835;50.974;10.322;2024-02-16T04:39:21;97985.47;;;12.10;100.00
72721;BME280;60835;50.974;10.322;2024-02-16T04:41:49;97968.44;;;12.05;100.00
72721;BME280;60835;50.974;10.322;2024-02-16T04:44:18;97974.41;;;12.07;100.00
72721;BME280;60835;50.974;10.322;2024-02-16T04:46:45;97973.25;;;12.09;100.00
72721;BME280;60835;50.974;10.322;2024-02-16T04:49:12;97971.63;;;12.00;100.00
72721;BME280;60835;50.974;10.322;2024-02-16T04:51:39;97955.47;;;11.87;100.00
72721;BME280;60835;50.974;10.322;2024-02-16T04:54:07;97958.31;;;11.86;100.00
72721;BME280;60835;50.974;10.322;2024-02-16T04:56:34;97960.72;;;11.95;100.00
72721;BME280;60835;50.974;10.322;2024-02-16T04:59:00;97965.16;;;11.72;100.00
72721;BME280;60835;50.974;10.322;2024-02-16T05:01:27;97955.53;;;11.63;100.00
72721;BME280;60835;50.974;10.322;2024-02-16T05:03:56;97939.84;;;11.61;100.00
72721;BME280;60835;50.974;10.322;2024-02-16T05:06:24;97941.84;;;11.59;100.00
72721;BME280;60835;50.974;10.322;2024-02-16T05:08:51;97921.84;;;11.49;100.00
72721;BME280;60835;50.974;10.322;2024-02-16T05:11:18;97921.13;;;11.55;100.00
72721;BME280;60835;50.974;10.322;2024-02-16T05:13:45;97937.41;;;11.44;100.00
72721;BME280;60835;50.974;10.322;2024-02-16T05:16:12;97922.53;;;11.43;100.00
72721;BME280;60835;50.974;10.322;2024-02-16T05:18:39;97930.56;;;11.57;100.00
72721;BME280;60835;50.974;10.322;2024-02-16T05:21:07;97922.56;;;11.66;100.00
72721;BME280;60835;50.974;10.322;2024-02-16T05:23:34;97935.38;;;11.70;100.00
72721;BME280;60835;50.974;10.322;2024-02-16T05:26:01;97918.03;;;11.51;100.00
72721;BME280;60835;50.974;10.322;2024-02-16T05:28:27;97927.16;;;11.49;100.00
72721;BME280;60835;50.974;10.322;2024-02-16T05:30:54;97903.06;;;11.28;100.00
72721;BME280;60835;50.974;10.322;2024-02-16T05:33:22;97903.69;;;11.38;100.00
72721;BME280;60835;50.974;10.322;2024-02-16T05:35:49;97899.38;;;11.37;100.00
72721;BME280;60835;50.974;10.322;2024-02-16T05:38:22;97902.31;;;11.42;100.00
72721;BME280;60835;50.974;10.322;2024-02-16T05:40:59;97894.03;;;11.45;100.00
72721;BME280;60835;50.974;10.322;2024-02-16T05:43:26;97894.66;;;11.55;100.00
72721;BME280;60835;50.974;10.322;2024-02-16T05:45:53;97898.50;;;11.44;100.00
72721;BME280;60835;50.974;10.322;2024-02-16T05:48:20;97905.81;;;11.42;100.00
72721;BME280;60835;50.974;10.322;2024-02-16T05:50:48;97883.50;;;11.29;100.00
72721;BME280;60835;50.974;10.322;2024-02-16T05:53:15;97877.59;;;11.19;100.00
72721;BME280;60835;50.974;10.322;2024-02-16T05:55:42;97881.50;;;11.31;100.00
72721;BME280;60835;50.974;10.322;2024-02-16T05:58:11;97886.50;;;11.26;100.00
72721;BME280;60835;50.974;10.322;2024-02-16T06:00:38;97876.09;;;11.24;100.00
72721;BME280;60835;50.974;10.322;2024-02-16T06:03:06;97893.13;;;11.30;100.00
72721;BME280;60835;50.974;10.322;2024-02-16T06:05:34;97893.09;;;11.38;100.00
72721;BME280;60835;50.974;10.322;2024-02-16T06:08:02;97882.50;;;11.38;100.00
72721;BME280;60835;50.974;10.322;2024-02-16T06:10:31;97886.53;;;11.18;100.00
72721;BME280;60835;50.974;10.322;2024-02-16T06:12:57;97867.00;;;11.19;100.00
72721;BME280;60835;50.974;10.322;2024-02-16T06:15:25;97876.22;;;11.31;100.00
72721;BME280;60835;50.974;10.322;2024-02-16T06:17:52;97891.91;;;11.40;100.00
72721;BME280;60835;50.974;10.322;2024-02-16T06:20:20;97894.66;;;11.55;100.00
72721;BME280;60835;50.974;10.322;2024-02-16T06:22:47;97916.03;;;11.53;100.00
72721;BME280;60835;50.974;10.322;2024-02-16T06:25:14;97909.41;;;11.49;100.00
72721;BME280;60835;50.974;10.322;2024-02-16T06:27:42;97899.00;;;11.48;100.00
72721;BME280;60835;50.974;10.322;2024-02-16T06:30:11;97907.59;;;11.50;100.00
72721;BME280;60835;50.974;10.322;2024-02-16T06:32:40;97894.19;;;11.51;100.00
72721;BME280;60835;50.974;10.322;2024-02-16T06:35:08;97922.03;;;11.78;100.00
72721;BME280;60835;50.974;10.322;2024-02-16T06:37:35;97926.25;;;11.73;100.00
72721;BME280;60835;50.974;10.322;2024-02-16T06:40:04;97933.63;;;11.85;100.00
72721;BME280;60835;50.974;10.322;2024-02-16T06:42:32;97940.19;;;11.89;100.00
72721;BME280;60835;50.974;10.322;2024-02-16T06:45:02;97944.22;;;11.85;100.00
72721;BME280;60835;50.974;10.322;2024-02-16T06:47:31;97940.91;;;11.83;100.00
72721;BME280;60835;50.974;10.322;2024-02-16T06:49:58;97920.75;;;11.66;100.00
72721;BME280;60835;50.974;10.322;2024-02-16T06:52:25;97928.69;;;11.74;100.00
72721;BME280;60835;50.974;10.322;2024-02-16T06:54:52;97932.25;;;11.89;100.00
72721;BME280;60835;50.974;10.322;2024-02-16T06:57:20;97921.34;;;11.84;100.00
72721;BME280;60835;50.974;10.322;2024-02-16T06:59:47;97937.84;;;11.94;100.00
72721;BME280;60835;50.974;10.322;2024-02-16T07:02:14;97932.44;;;11.88;100.00
72721;BME280;60835;50.974;10.322;2024-02-16T07:04:41;97925.03;;;11.83;100.00
72721;BME280;60835;50.974;10.322;2024-02-16T07:07:09;97933.63;;;11.85;100.00
72721;BME280;60835;50.974;10.322;2024-02-16T07:09:36;97914.41;;;11.83;100.00
72721;BME280;60835;50.974;10.322;2024-02-16T07:12:03;97913.69;;;11.89;100.00
72721;BME280;60835;50.974;10.322;2024-02-16T07:14:31;97909.38;;;11.96;100.00
72721;BME280;60835;50.974;10.322;2024-02-16T07:16:58;97889.44;;;12.00;100.00
72721;BME280;60835;50.974;10.322;2024-02-16T07:19:25;97889.78;;;11.97;100.00
72721;BME280;60835;50.974;10.322;2024-02-16T07:21:52;97887.09;;;11.83;100.00
72721;BME280;60835;50.974;10.322;2024-02-16T07:24:19;97873.66;;;11.84;100.00
72721;BME280;60835;50.974;10.322;2024-02-16T07:26:46;97873.84;;;11.83;100.00
72721;BME280;60835;50.974;10.322;2024-02-16T07:29:13;97862.44;;;11.74;100.00
72721;BME280;60835;50.974;10.322;2024-02-16T07:31:43;97829.91;;;11.57;100.00
72721;BME280;60835;50.974;10.322;2024-02-16T07:34:10;97816.34;;;11.52;100.00
72721;BME280;60835;50.974;10.322;2024-02-16T07:36:38;97807.75;;;11.50;100.00
72721;BME280;60835;50.974;10.322;2024-02-16T07:39:05;97783.72;;;11.52;100.00
72721;BME280;60835;50.974;10.322;2024-02-16T07:41:34;97770.88;;;11.49;100.00
72721;BME280;60835;50.974;10.322;2024-02-16T07:44:01;97750.59;;;11.56;100.00
72721;BME280;60835;50.974;10.322;2024-02-16T07:46:28;97749.13;;;11.53;100.00
72721;BME280;60835;50.974;10.322;2024-02-16T07:48:59;97749.84;;;11.47;100.00
72721;BME280;60835;50.974;10.322;2024-02-16T07:51:26;97755.47;;;11.44;100.00
72721;BME280;60835;50.974;10.322;2024-02-16T07:53:53;97762.59;;;11.44;100.00
72721;BME280;60835;50.974;10.322;2024-02-16T07:56:21;97749.34;;;11.44;100.00
72721;BME280;60835;50.974;10.322;2024-02-16T07:58:47;97760.91;;;11.51;100.00
72721;BME280;60835;50.974;10.322;2024-02-16T08:01:14;97736.06;;;11.52;100.00
72721;BME280;60835;50.974;10.322;2024-02-16T08:03:44;97751.72;;;11.61;100.00
72721;BME280;60835;50.974;10.322;2024-02-16T08:06:11;97739.13;;;11.63;100.00
72721;BME280;60835;50.974;10.322;2024-02-16T08:08:38;97753.34;;;11.62;100.00
72721;BME280;60835;50.974;10.322;2024-02-16T08:11:05;97733.22;;;11.31;100.00
72721;BME280;60835;50.974;10.322;2024-02-16T08:13:32;97759.47;;;11.71;100.00
72721;BME280;60835;50.974;10.322;2024-02-16T08:15:58;97750.56;;;11.64;100.00
72721;BME280;60835;50.974;10.322;2024-02-16T08:18:27;97755.00;;;11.72;100.00
72721;BME280;60835;50.974;10.322;2024-02-16T08:20:54;97782.34;;;11.64;100.00
72721;BME280;60835;50.974;10.322;2024-02-16T08:23:21;97797.13;;;11.58;100.00
72721;BME280;60835;50.974;10.322;2024-02-16T08:25:48;97823.06;;;11.63;100.00
72721;BME280;60835;50.974;10.322;2024-02-16T08:28:15;97823.06;;;11.63;100.00
72721;BME280;60835;50.974;10.322;2024-02-16T08:30:41;97831.38;;;11.60;100.00
72721;BME280;60835;50.974;10.322;2024-02-16T08:33:11;97851.91;;;11.58;100.00
72721;BME280;60835;50.974;10.322;2024-02-16T08:35:40;97839.66;;;11.57;100.00
72721;BME280;60835;50.974;10.322;2024-02-16T08:38:06;97873.75;;;11.60;100.00
72721;BME280;60835;50.974;10.322;2024-02-16T08:40:37;97858.69;;;11.60;100.00
72721;BME280;60835;50.974;10.322;2024-02-16T08:43:07;97861.47;;;11.67;100.00
72721;BME280;60835;50.974;10.322;2024-02-16T08:45:34;97861.81;;;11.72;100.00
72721;BME280;60835;50.974;10.322;2024-02-16T08:48:01;97843.97;;;11.58;100.00
72721;BME280;60835;50.974;10.322;2024-02-16T08:50:31;97873.06;;;11.74;100.00
72721;BME280;60835;50.974;10.322;2024-02-16T08:52:57;97874.00;;;11.81;100.00
72721;BME280;60835;50.974;10.322;2024-02-16T08:55:24;97878.41;;;11.89;100.00
72721;BME280;60835;50.974;10.322;2024-02-16T08:57:52;97895.63;;;11.93;100.00
72721;BME280;60835;50.974;10.322;2024-02-16T09:00:19;97906.81;;;11.80;100.00
72721;BME280;60835;50.974;10.322;2024-02-16T09:02:46;97904.56;;;11.92;100.00
72721;BME280;60835;50.974;10.322;2024-02-16T09:05:14;97926.75;;;11.99;100.00
72721;BME280;60835;50.974;10.322;2024-02-16T09:07:41;97941.13;;;12.04;100.00
72721;BME280;60835;50.974;10.322;2024-02-16T09:10:09;97937.88;;;12.17;100.00
72721;BME280;60835;50.974;10.322;2024-02-16T09:12:36;97928.56;;;12.44;100.00
72721;BME280;60835;50.974;10.322;2024-02-16T09:15:03;97943.00;;;12.64;100.00
72721;BME280;60835;50.974;10.322;2024-02-16T09:17:31;97968.53;;;13.02;100.00
72721;BME280;60835;50.974;10.322;2024-02-16T09:19:58;97967.88;;;13.00;100.00
72721;BME280;60835;50.974;10.322;2024-02-16T09:22:25;97965.88;;;13.02;100.00
72721;BME280;60835;50.974;10.322;2024-02-16T09:24:54;97969.53;;;13.01;100.00
72721;BME280;60835;50.974;10.322;2024-02-16T09:27:22;97987.56;;;13.28;100.00
72721;BME280;60835;50.974;10.322;2024-02-16T09:29:52;98000.72;;;13.07;100.00
72721;BME280;60835;50.974;10.322;2024-02-16T09:32:19;97995.34;;;13.30;100.00
72721;BME280;60835;50.974;10.322;2024-02-16T09:34:46;98013.06;;;12.92;100.00
72721;BME280;60835;50.974;10.322;2024-02-16T09:37:13;97997.34;;;13.42;100.00
72721;BME280;60835;50.974;10.322;2024-02-16T09:39:39;98027.31;;;13.36;100.00
72721;BME280;60835;50.974;10.322;2024-02-16T09:42:08;98017.50;;;13.22;100.00
72721;BME280;60835;50.974;10.322;2024-02-16T09:44:35;98007.88;;;13.21;100.00
72721;BME280;60835;50.974;10.322;2024-02-16T09:47:03;98013.72;;;13.17;100.00
72721;BME280;60835;50.974;10.322;2024-02-16T09:49:30;98019.94;;;13.09;100.00
72721;BME280;60835;50.974;10.322;2024-02-16T09:52:09;98028.44;;;13.05;100.00
72721;BME280;60835;50.974;10.322;2024-02-16T09:54:37;97981.88;;;13.31;100.00
72721;BME280;60835;50.974;10.322;2024-02-16T09:57:08;98023.38;;;13.62;100.00
72721;BME280;60835;50.974;10.322;2024-02-16T09:59:35;98039.41;;;13.54;100.00
72721;BME280;60835;50.974;10.322;2024-02-16T10:02:03;98046.75;;;13.66;100.00
72721;BME280;60835;50.974;10.322;2024-02-16T10:04:34;98035.03;;;13.61;100.00
72721;BME280;60835;50.974;10.322;2024-02-16T10:07:03;98043.72;;;14.13;100.00
72721;BME280;60835;50.974;10.322;2024-02-16T10:09:38;98039.84;;;14.16;100.00
72721;BME280;60835;50.974;10.322;2024-02-16T10:12:06;98048.59;;;13.95;100.00
72721;BME280;60835;50.974;10.322;2024-02-16T10:14:34;98035.53;;;14.29;100.00
72721;BME280;60835;50.974;10.322;2024-02-16T10:17:05;98039.72;;;15.23;100.00
72721;BME280;60835;50.974;10.322;2024-02-16T10:19:37;98030.19;;;15.56;100.00
72721;BME280;60835;50.974;10.322;2024-02-16T10:22:12;98027.41;;;16.12;100.00
72721;BME280;60835;50.974;10.322;2024-02-16T10:24:43;98031.34;;;15.81;100.00
72721;BME280;60835;50.974;10.322;2024-02-16T10:27:15;98012.59;;;16.70;100.00
72721;BME280;60835;50.974;10.322;2024-02-16T10:29:44;98013.59;;;16.56;100.00
72721;BME280;60835;50.974;10.322;2024-02-16T10:32:13;97997.03;;;16.99;100.00
72721;BME280;60835;50.974;10.322;2024-02-16T10:34:41;98018.78;;;15.75;100.00
72721;BME280;60835;50.974;10.322;2024-02-16T10:37:09;98000.25;;;16.56;100.00
72721;BME280;60835;50.974;10.322;2024-02-16T10:39:36;98014.69;;;15.17;100.00
72721;BME280;60835;50.974;10.322;2024-02-16T10:42:06;98019.88;;;15.25;100.00
72721;BME280;60835;50.974;10.322;2024-02-16T10:44:34;98021.44;;;15.69;100.00
72721;BME280;60835;50.974;10.322;2024-02-16T10:47:02;98005.41;;;15.41;100.00
72721;BME280;60835;50.974;10.322;2024-02-16T10:49:31;98004.38;;;15.63;100.00
72721;BME280;60835;50.974;10.322;2024-02-16T10:51:59;98026.94;;;15.12;100.00
72721;BME280;60835;50.974;10.322;2024-02-16T10:54:30;98019.72;;;15.06;100.00
72721;BME280;60835;50.974;10.322;2024-02-16T10:57:01;97995.19;;;15.45;100.00
72721;BME280;60835;50.974;10.322;2024-02-16T10:59:37;98028.28;;;14.80;100.00
72721;BME280;60835;50.974;10.322;2024-02-16T11:02:07;98032.69;;;14.67;100.00
72721;BME280;60835;50.974;10.322;2024-02-16T11:04:37;98013.53;;;14.78;100.00
72721;BME280;60835;50.974;10.322;2024-02-16T11:07:15;98017.47;;;14.82;100.00
72721;BME280;60835;50.974;10.322;2024-02-16T11:09:44;98012.63;;;14.92;100.00
72721;BME280;60835;50.974;10.322;2024-02-16T11:12:15;98009.09;;;14.85;100.00
72721;BME280;60835;50.974;10.322;2024-02-16T11:14:47;98004.84;;;15.18;100.00
72721;BME280;60835;50.974;10.322;2024-02-16T11:17:23;98003.13;;;14.61;100.00
72721;BME280;60835;50.974;10.322;2024-02-16T11:19:54;97990.06;;;14.88;100.00
72721;BME280;60835;50.974;10.322;2024-02-16T11:22:22;97980.31;;;14.74;100.00
72721;BME280;60835;50.974;10.322;2024-02-16T11:24:53;97971.03;;;14.91;100.00
72721;BME280;60835;50.974;10.322;2024-02-16T11:27:25;97962.22;;;15.18;100.00
72721;BME280;60835;50.974;10.322;2024-02-16T11:29:58;97975.06;;;15.08;100.00
72721;BME280;60835;50.974;10.322;2024-02-16T11:32:26;97967.53;;;15.18;100.00
72721;BME280;60835;50.974;10.322;2024-02-16T11:34:53;97938.25;;;15.52;100.00
72721;BME280;60835;50.974;10.322;2024-02-16T11:37:21;97950.09;;;15.43;100.00
72721;BME280;60835;50.974;10.322;2024-02-16T11:39:55;97937.09;;;15.61;100.00
72721;BME280;60835;50.974;10.322;2024-02-16T11:42:21;97930.56;;;15.70;100.00
72721;BME280;60835;50.974;10.322;2024-02-16T11:44:53;97916.50;;;15.96;100.00
72721;BME280;60835;50.974;10.322;2024-02-16T11:47:24;97918.84;;;16.25;100.00
72721;BME280;60835;50.974;10.322;2024-02-16T11:50:07;97920.16;;;15.89;100.00
72721;BME280;60835;50.974;10.322;2024-02-16T11:52:39;97937.53;;;15.37;100.00
72721;BME280;60835;50.974;10.322;2024-02-16T11:55:10;97885.84;;;15.32;100.00
72721;BME280;60835;50.974;10.322;2024-02-16T11:57:38;97921.75;;;15.76;100.00
72721;BME280;60835;50.974;10.322;2024-02-16T12:00:06;97905.22;;;16.01;100.00
72721;BME280;60835;50.974;10.322;2024-02-16T12:02:42;97894.31;;;15.82;100.00
72721;BME280;60835;50.974;10.322;2024-02-16T12:05:08;97907.94;;;16.14;100.00
72721;BME280;60835;50.974;10.322;2024-02-16T12:07:39;97919.78;;;16.05;100.00
72721;BME280;60835;50.974;10.322;2024-02-16T12:10:10;97921.97;;;15.81;100.00
72721;BME280;60835;50.974;10.322;2024-02-16T12:12:37;97913.09;;;16.22;100.00
72721;BME280;60835;50.974;10.322;2024-02-16T12:15:05;97894.88;;;16.58;100.00
72721;BME280;60835;50.974;10.322;2024-02-16T12:17:34;97847.34;;;17.06;100.00
72721;BME280;60835;50.974;10.322;2024-02-16T12:20:02;97833.94;;;17.26;100.00
72721;BME280;60835;50.974;10.322;2024-02-16T12:22:30;97788.16;;;17.02;100.00
72721;BME280;60835;50.974;10.322;2024-02-16T12:24:56;97795.19;;;16.90;100.00
72721;BME280;60835;50.974;10.322;2024-02-16T12:27:26;97798.06;;;16.82;100.00
72721;BME280;60835;50.974;10.322;2024-02-16T12:29:53;97806.28;;;16.87;100.00
72721;BME280;60835;50.974;10.322;2024-02-16T12:32:20;97799.75;;;16.70;100.00
72721;BME280;60835;50.974;10.322;2024-02-16T12:34:46;97821.50;;;16.87;100.00
72721;BME280;60835;50.974;10.322;2024-02-16T12:37:14;97822.75;;;16.45;100.00
72721;BME280;60835;50.974;10.322;2024-02-16T12:39:41;97838.78;;;16.58;100.00
72721;BME280;60835;50.974;10.322;2024-02-16T12:42:07;97812.47;;;16.29;100.00
72721;BME280;60835;50.974;10.322;2024-02-16T12:44:37;97807.13;;;16.29;100.00